createdAt,value
2018-05-26T00:00:36.355Z,16.90
2018-05-26T00:03:06.706Z,16.90
2018-05-26T00:05:36.703Z,16.80
2018-05-26T00:08:06.434Z,17.00
2018-05-26T00:10:36.186Z,17.10
2018-05-26T00:13:12.979Z,17.20
2018-05-26T00:15:45.327Z,17.10
2018-05-26T00:18:14.924Z,17.10
2018-05-26T00:20:44.554Z,17.10
2018-05-26T00:23:15.088Z,17.00
2018-05-26T00:25:45.607Z,17.00
2018-05-26T00:28:15.128Z,17.00
2018-05-26T00:30:45.549Z,17.10
2018-05-26T00:33:15.077Z,17.00
2018-05-26T00:35:46.798Z,17.20
2018-05-26T00:38:16.932Z,17.10
2018-05-26T00:40:47.269Z,17.10
2018-05-26T00:43:17.183Z,17.20
2018-05-26T00:45:48.103Z,17.20
2018-05-26T00:48:17.745Z,17.10
2018-05-26T00:50:47.299Z,17.10
2018-05-26T00:53:16.976Z,17.00
2018-05-26T00:55:47.292Z,17.00
2018-05-26T00:58:17.541Z,17.00
2018-05-26T01:00:47.738Z,17.20
2018-05-26T01:03:20.225Z,17.20
2018-05-26T01:05:54.611Z,17.20
2018-05-26T01:08:24.179Z,17.20
2018-05-26T01:10:53.771Z,17.20
2018-05-26T01:13:24.205Z,17.10
2018-05-26T01:15:53.857Z,17.10
2018-05-26T01:18:23.451Z,17.10
2018-05-26T01:20:53.808Z,17.20
2018-05-26T01:23:23.696Z,17.10
2018-05-26T01:25:53.361Z,17.00
2018-05-26T01:28:22.993Z,16.90
2018-05-26T01:30:52.492Z,16.80
2018-05-26T01:33:22.136Z,16.80
2018-05-26T01:35:51.684Z,16.70
2018-05-26T01:38:21.915Z,16.70
2018-05-26T01:40:51.491Z,16.60
2018-05-26T01:43:21.152Z,16.50
2018-05-26T01:45:50.663Z,16.40
2018-05-26T01:48:20.356Z,16.30
2018-05-26T01:50:50.326Z,16.40
2018-05-26T01:53:20.546Z,16.40
2018-05-26T01:55:50.252Z,16.40
2018-05-26T01:58:20.126Z,16.40
2018-05-26T02:00:49.991Z,16.40
2018-05-26T02:03:20.777Z,16.40
2018-05-26T02:05:51.114Z,16.40
2018-05-26T02:08:20.955Z,16.40
2018-05-26T02:10:50.499Z,16.50
2018-05-26T02:13:20.091Z,16.50
2018-05-26T02:15:49.610Z,16.40
2018-05-26T02:18:19.979Z,16.20
2018-05-26T02:20:49.924Z,16.20
2018-05-26T02:23:19.531Z,16.00
2018-05-26T02:25:49.275Z,15.90
2018-05-26T02:28:19.945Z,15.70
2018-05-26T02:30:49.469Z,15.70
2018-05-26T02:33:19.062Z,15.70
2018-05-26T02:35:48.758Z,15.70
2018-05-26T02:38:18.617Z,15.70
2018-05-26T02:40:48.205Z,15.80
2018-05-26T02:43:17.823Z,15.70
2018-05-26T02:45:47.432Z,15.70
2018-05-26T02:48:18.668Z,15.70
2018-05-26T02:50:48.304Z,15.70
2018-05-26T02:53:18.844Z,15.70
2018-05-26T02:55:48.400Z,15.60
2018-05-26T02:58:18.131Z,15.70
2018-05-26T03:00:51.497Z,15.70
2018-05-26T03:03:21.177Z,15.80
2018-05-26T03:05:56.917Z,15.80
2018-05-26T03:08:35.077Z,15.80
2018-05-26T03:11:11.185Z,15.80
2018-05-26T03:13:46.201Z,15.80
2018-05-26T03:16:21.943Z,15.80
2018-05-26T03:18:51.502Z,15.70
2018-05-26T03:21:21.146Z,15.80
2018-05-26T03:23:50.759Z,15.90
2018-05-26T03:26:20.268Z,15.90
2018-05-26T03:28:49.775Z,15.90
2018-05-26T03:31:19.377Z,15.90
2018-05-26T03:33:49.024Z,16.00
2018-05-26T03:36:18.551Z,16.00
2018-05-26T03:38:51.688Z,16.00
2018-05-26T03:41:25.896Z,16.00
2018-05-26T03:43:55.544Z,16.00
2018-05-26T03:46:25.060Z,16.00
2018-05-26T03:48:54.741Z,15.90
2018-05-26T03:51:24.239Z,15.80
2018-05-26T03:53:53.889Z,15.80
2018-05-26T03:56:41.389Z,15.80
2018-05-26T04:02:13.063Z,16.10
2018-05-26T04:04:42.581Z,16.00
2018-05-26T04:07:13.110Z,16.20
2018-05-26T04:09:42.738Z,16.40
2018-05-26T04:12:17.814Z,16.60
2018-05-26T04:14:48.177Z,16.60
2018-05-26T04:17:17.822Z,16.60
2018-05-26T04:19:48.316Z,16.90
2018-05-26T04:22:18.391Z,16.80
2018-05-26T04:24:48.143Z,17.00
2018-05-26T04:27:17.660Z,17.10
2018-05-26T04:29:48.092Z,17.60
2018-05-26T04:32:18.493Z,17.80
2018-05-26T04:34:48.269Z,17.80
2018-05-26T04:37:17.958Z,18.00
2018-05-26T04:39:47.576Z,18.20
2018-05-26T04:42:18.277Z,18.80
2018-05-26T04:44:47.976Z,18.70
2018-05-26T04:47:17.659Z,19.00
2018-05-26T04:49:47.408Z,19.20
2018-05-26T04:52:16.909Z,19.30
2018-05-26T04:54:46.422Z,19.50
2018-05-26T04:57:16.124Z,19.60
2018-05-26T04:59:45.620Z,19.90
2018-05-26T05:02:15.137Z,20.30
2018-05-26T05:04:45.005Z,20.70
2018-05-26T05:07:15.587Z,21.00
2018-05-26T05:09:46.010Z,21.10
2018-05-26T05:12:15.795Z,21.30
2018-05-26T05:14:45.521Z,21.70
2018-05-26T05:17:16.551Z,22.00
2018-05-26T05:19:49.878Z,22.80
2018-05-26T05:22:19.591Z,22.70
2018-05-26T05:24:55.960Z,23.10
2018-05-26T05:27:26.100Z,23.10
2018-05-26T05:29:55.731Z,22.90
2018-05-26T05:32:26.144Z,23.20
2018-05-26T05:34:56.453Z,23.50
2018-05-26T05:37:26.022Z,23.50
2018-05-26T05:39:55.543Z,23.60
2018-05-26T05:42:25.396Z,23.90
2018-05-26T05:44:55.680Z,24.50
2018-05-26T05:47:25.402Z,24.50
2018-05-26T05:49:55.207Z,24.60
2018-05-26T05:52:24.695Z,24.70
2018-05-26T05:54:54.175Z,24.80
2018-05-26T05:57:23.711Z,24.90
2018-05-26T05:59:53.346Z,24.90
2018-05-26T06:02:22.872Z,25.10
2018-05-26T06:04:52.447Z,25.50
2018-05-26T06:07:22.080Z,25.80
2018-05-26T06:09:52.589Z,26.40
2018-05-26T06:12:22.176Z,26.80
2018-05-26T06:14:51.735Z,27.20
2018-05-26T06:17:21.370Z,27.60
2018-05-26T06:19:50.981Z,27.00
2018-05-26T06:22:20.485Z,27.30
2018-05-26T06:24:50.798Z,26.90
2018-05-26T06:27:21.177Z,26.00
2018-05-26T06:29:50.853Z,25.90
2018-05-26T06:32:20.865Z,25.90
2018-05-26T06:34:50.586Z,27.00
2018-05-26T06:37:20.227Z,27.90
2018-05-26T06:39:49.717Z,28.00
2018-05-26T06:42:19.461Z,28.60
2018-05-26T06:44:49.003Z,28.80
2018-05-26T06:47:18.626Z,29.00
2018-05-26T06:49:48.373Z,29.20
2018-05-26T06:52:18.078Z,28.70
2018-05-26T06:54:47.546Z,28.60
2018-05-26T06:57:17.916Z,29.40
2018-05-26T06:59:47.524Z,29.40
2018-05-26T07:02:17.023Z,29.60
2018-05-26T07:04:47.556Z,29.90
2018-05-26T07:07:17.178Z,29.90
2018-05-26T07:09:47.163Z,29.40
2018-05-26T07:12:25.761Z,29.30
2018-05-26T07:15:02.699Z,30.10
2018-05-26T07:17:32.379Z,30.30
2018-05-26T07:20:03.762Z,30.10
2018-05-26T07:22:34.753Z,30.60
2018-05-26T07:25:04.524Z,30.80
2018-05-26T07:27:34.402Z,30.80
2018-05-26T07:30:07.014Z,31.80
2018-05-26T07:32:36.684Z,32.20
2018-05-26T07:35:06.602Z,32.70
2018-05-26T07:37:36.143Z,31.70
2018-05-26T07:40:05.939Z,31.20
2018-05-26T07:42:35.544Z,31.40
2018-05-26T07:45:05.109Z,29.60
2018-05-26T07:47:35.404Z,31.20
2018-05-26T07:50:05.776Z,31.20
2018-05-26T07:52:35.482Z,32.30
2018-05-26T07:55:05.096Z,32.50
2018-05-26T07:57:34.647Z,33.40
2018-05-26T08:00:04.455Z,33.40
2018-05-26T08:02:37.282Z,33.80
2018-05-26T08:05:06.987Z,34.10
2018-05-26T08:07:36.503Z,34.10
2018-05-26T08:10:13.238Z,34.20
2018-05-26T08:12:44.050Z,34.60
2018-05-26T08:15:17.079Z,34.10
2018-05-26T08:17:47.364Z,34.20
2018-05-26T08:20:20.391Z,34.20
2018-05-26T08:22:50.692Z,34.90
2018-05-26T08:25:20.289Z,34.80
2018-05-26T08:27:49.820Z,35.00
2018-05-26T08:30:22.495Z,35.00
2018-05-26T08:32:52.052Z,35.20
2018-05-26T08:35:22.168Z,34.70
2018-05-26T08:37:51.700Z,33.90
2018-05-26T08:40:22.839Z,33.70
2018-05-26T08:42:52.623Z,33.90
2018-05-26T08:45:24.147Z,34.10
2018-05-26T08:47:55.790Z,34.70
2018-05-26T08:50:26.143Z,34.70
2018-05-26T08:52:56.196Z,35.50
2018-05-26T08:55:26.089Z,33.40
2018-05-26T08:57:56.387Z,34.20
2018-05-26T09:00:26.060Z,34.20
2018-05-26T09:02:55.534Z,35.10
2018-05-26T09:05:25.789Z,36.00
2018-05-26T09:07:55.492Z,36.00
2018-05-26T09:10:25.256Z,35.10
2018-05-26T09:12:55.772Z,35.80
2018-05-26T09:15:25.461Z,35.70
2018-05-26T09:17:55.961Z,36.30
2018-05-26T09:20:26.129Z,36.40
2018-05-26T09:22:55.632Z,36.60
2018-05-26T09:25:25.192Z,37.00
2018-05-26T09:27:54.624Z,37.00
2018-05-26T09:30:24.139Z,36.90
2018-05-26T09:32:54.659Z,36.80
2018-05-26T09:35:24.440Z,36.80
2018-05-26T09:37:54.175Z,36.10
2018-05-26T09:40:23.711Z,35.70
2018-05-26T09:42:53.288Z,36.50
2018-05-26T09:45:22.766Z,36.00
2018-05-26T09:47:53.168Z,36.00
2018-05-26T09:50:22.805Z,36.60
2018-05-26T09:52:52.291Z,36.60
2018-05-26T09:55:22.610Z,33.60
2018-05-26T09:57:53.508Z,33.50
2018-05-26T10:00:23.293Z,34.00
2018-05-26T10:02:52.840Z,34.70
2018-05-26T10:05:22.642Z,34.20
2018-05-26T10:07:52.315Z,33.20
2018-05-26T10:10:22.670Z,34.70
2018-05-26T10:12:52.396Z,34.60
2018-05-26T10:15:21.881Z,34.30
2018-05-26T10:17:51.492Z,35.20
2018-05-26T10:20:22.295Z,36.00
2018-05-26T10:22:52.590Z,36.70
2018-05-26T10:25:22.164Z,36.70
2018-05-26T10:27:51.744Z,36.80
2018-05-26T10:30:22.148Z,37.40
2018-05-26T10:32:52.443Z,35.50
2018-05-26T10:35:22.043Z,35.50
2018-05-26T10:37:51.597Z,35.70
2018-05-26T10:40:22.545Z,37.00
2018-05-26T10:42:52.088Z,37.00
2018-05-26T10:45:38.179Z,36.70
2018-05-26T10:48:07.678Z,36.70
2018-05-26T10:50:37.290Z,36.70
2018-05-26T10:53:06.760Z,37.20
2018-05-26T10:55:36.254Z,36.90
2018-05-26T10:58:05.800Z,37.30
2018-05-26T11:00:36.226Z,35.80
2018-05-26T11:03:06.434Z,37.10
2018-05-26T11:05:37.837Z,36.30
2018-05-26T11:08:07.409Z,36.30
2018-05-26T11:10:37.647Z,35.80
2018-05-26T11:13:07.470Z,35.80
2018-05-26T11:15:36.977Z,35.90
2018-05-26T11:18:06.513Z,35.60
2018-05-26T11:20:36.095Z,35.70
2018-05-26T11:23:05.818Z,35.90
2018-05-26T11:25:35.504Z,35.10
2018-05-26T11:28:05.052Z,35.00
2018-05-26T11:30:34.921Z,34.70
2018-05-26T11:33:05.134Z,34.30
2018-05-26T11:35:35.396Z,34.00
2018-05-26T11:38:05.081Z,34.00
2018-05-26T11:40:34.700Z,33.80
2018-05-26T11:43:04.548Z,33.40
2018-05-26T11:45:34.002Z,32.90
2018-05-26T11:48:19.183Z,32.60
2018-05-26T11:50:48.619Z,32.50
2018-05-26T11:53:18.545Z,32.30
2018-05-26T11:55:48.000Z,32.20
2018-05-26T11:58:17.928Z,31.90
2018-05-26T12:00:53.473Z,31.90
2018-05-26T12:03:23.619Z,31.70
2018-05-26T12:05:53.109Z,31.70
2018-05-26T12:08:23.224Z,31.60
2018-05-26T12:10:52.856Z,31.30
2018-05-26T12:13:22.338Z,30.90
2018-05-26T12:15:51.808Z,30.70
2018-05-26T12:18:22.160Z,30.70
2018-05-26T12:20:51.653Z,30.70
2018-05-26T12:23:21.885Z,30.70
2018-05-26T12:25:51.498Z,30.60
2018-05-26T12:28:20.958Z,30.50
2018-05-26T12:30:50.485Z,30.40
2018-05-26T12:33:20.849Z,30.00
2018-05-26T12:35:50.299Z,30.00
2018-05-26T12:38:19.833Z,29.90
2018-05-26T12:40:50.054Z,30.00
2018-05-26T12:43:20.418Z,30.30
2018-05-26T12:45:49.850Z,30.30
2018-05-26T12:48:19.457Z,30.60
2018-05-26T12:50:48.922Z,30.70
2018-05-26T12:53:18.580Z,30.40
2018-05-26T13:05:53.083Z,30.10
2018-05-26T13:08:55.806Z,30.80
2018-05-26T13:13:32.566Z,31.10
2018-05-26T13:16:02.815Z,31.40
2018-05-26T13:18:32.520Z,31.40
2018-05-26T13:21:02.530Z,31.10
2018-05-26T13:26:43.704Z,29.80
2018-05-26T13:29:29.723Z,29.80
2018-05-26T13:32:00.082Z,29.60
2018-05-26T13:34:29.548Z,29.60
2018-05-26T13:37:00.193Z,29.50
2018-05-26T13:39:29.831Z,29.40
2018-05-26T13:41:59.341Z,29.30
2018-05-26T13:44:29.532Z,29.20
2018-05-26T13:46:59.258Z,29.20
2018-05-26T13:49:29.926Z,29.40
2018-05-26T13:52:00.724Z,29.60
2018-05-26T13:54:34.779Z,29.60
2018-05-26T13:57:07.442Z,29.90
2018-05-26T13:59:37.116Z,29.90
2018-05-26T14:02:07.488Z,29.60
2018-05-26T14:04:38.980Z,29.60
2018-05-26T14:07:13.366Z,29.70
2018-05-26T14:10:00.412Z,29.00
2018-05-26T14:12:29.995Z,29.00
2018-05-26T14:15:00.406Z,28.50
2018-05-26T14:17:30.087Z,28.50
2018-05-26T14:19:59.907Z,28.20
2018-05-26T14:22:29.464Z,28.40
2018-05-26T14:25:00.042Z,28.80
2018-05-26T14:27:29.569Z,28.80
2018-05-26T14:30:00.475Z,29.10
2018-05-26T14:32:30.033Z,29.10
2018-05-26T14:35:02.161Z,29.00
2018-05-26T14:37:31.946Z,29.00
2018-05-26T14:40:01.940Z,29.10
2018-05-26T14:42:32.216Z,28.90
2018-05-26T14:45:02.119Z,28.90
2018-05-26T14:47:31.677Z,28.80
2018-05-26T14:50:02.642Z,28.40
2018-05-26T14:52:32.281Z,28.40
2018-05-26T14:55:02.238Z,28.30
2018-05-26T14:57:32.469Z,28.40
2018-05-26T15:00:03.227Z,28.40
2018-05-26T15:02:32.753Z,28.40
2018-05-26T15:05:02.608Z,28.50
2018-05-26T15:07:32.083Z,28.50
2018-05-26T15:10:02.146Z,28.50
2018-05-26T15:12:32.669Z,28.40
2018-05-26T15:15:02.703Z,28.30
2018-05-26T15:17:32.969Z,28.20
2018-05-26T15:20:02.881Z,28.10
2018-05-26T15:22:32.341Z,28.20
2018-05-26T15:25:02.314Z,28.10
2018-05-26T15:27:32.805Z,28.10
2018-05-26T15:30:02.810Z,28.10
2018-05-26T15:32:32.296Z,28.10
2018-05-26T15:35:02.373Z,28.00
2018-05-26T15:37:31.826Z,28.00
2018-05-26T15:40:02.083Z,27.90
2018-05-26T15:42:31.748Z,27.90
2018-05-26T15:45:01.831Z,27.90
2018-05-26T15:47:31.332Z,27.90
2018-05-26T15:50:01.259Z,27.80
2018-05-26T15:52:30.935Z,27.80
2018-05-26T15:55:01.635Z,27.70
2018-05-26T15:57:31.124Z,27.70
2018-05-26T16:00:01.011Z,27.70
2018-05-26T16:02:30.587Z,27.60
2018-05-26T16:05:00.492Z,27.60
2018-05-26T16:07:30.756Z,27.60
2018-05-26T16:10:00.773Z,27.60
2018-05-26T16:12:30.415Z,27.60
2018-05-26T16:15:00.372Z,27.60
2018-05-26T16:17:29.903Z,27.50
2018-05-26T16:19:59.857Z,27.50
2018-05-26T16:22:29.446Z,27.40
2018-05-26T16:24:58.944Z,27.40
2018-05-26T16:27:28.536Z,27.40
2018-05-26T16:29:57.993Z,27.40
2018-05-26T16:32:27.674Z,27.30
2018-05-26T16:34:57.151Z,27.30
2018-05-26T16:37:26.683Z,27.20
2018-05-26T16:39:56.405Z,27.20
2018-05-26T16:42:25.878Z,27.10
2018-05-26T16:44:55.393Z,27.10
2018-05-26T16:47:24.840Z,27.10
2018-05-26T16:56:25.287Z,26.90
2018-05-26T16:58:54.965Z,26.80
2018-05-26T17:01:26.320Z,26.90
2018-05-26T17:03:56.379Z,26.90
2018-05-26T17:07:46.674Z,26.80
2018-05-26T17:10:17.677Z,26.80
2018-05-26T17:12:47.253Z,26.80
2018-05-26T17:15:16.776Z,26.80
2018-05-26T17:17:48.169Z,26.70
2018-05-26T17:20:19.170Z,26.70
2018-05-26T17:22:48.924Z,26.70
2018-05-26T17:25:18.612Z,26.60
2018-05-26T17:27:48.212Z,26.50
2018-05-26T17:30:19.726Z,26.50
2018-05-26T17:32:49.271Z,26.40
2018-05-26T17:35:21.771Z,26.40
2018-05-26T17:37:51.379Z,26.30
2018-05-26T17:40:20.863Z,26.20
2018-05-26T17:42:50.381Z,26.20
2018-05-26T17:45:19.848Z,26.10
2018-05-26T17:47:50.185Z,26.00
2018-05-26T17:50:20.536Z,25.90
2018-05-26T17:52:51.834Z,25.90
2018-05-26T17:55:21.823Z,25.90
2018-05-26T17:57:51.296Z,25.90
2018-05-26T18:00:20.906Z,25.80
2018-05-26T18:02:50.559Z,25.80
2018-05-26T18:05:20.163Z,25.70
2018-05-26T18:07:49.728Z,25.70
2018-05-26T18:10:20.631Z,25.50
2018-05-26T18:12:50.962Z,25.30
2018-05-26T18:15:20.775Z,25.30
2018-05-26T18:17:51.262Z,25.20
2018-05-26T18:20:22.184Z,25.10
2018-05-26T18:22:51.866Z,25.10
2018-05-26T18:25:22.125Z,24.90
2018-05-26T18:27:51.595Z,24.90
2018-05-26T18:30:21.962Z,24.70
2018-05-26T18:32:51.800Z,24.70
2018-05-26T18:35:23.484Z,24.40
2018-05-26T18:37:53.970Z,24.30
2018-05-26T18:40:25.908Z,24.10
2018-05-26T18:42:55.515Z,24.10
2018-05-26T18:45:25.225Z,24.10
2018-05-26T18:47:54.828Z,24.10
2018-05-26T18:50:55.288Z,24.10
2018-05-26T18:53:30.564Z,24.00
2018-05-26T18:56:02.154Z,23.90
2018-05-26T18:58:31.661Z,23.90
2018-05-26T19:01:01.459Z,23.90
2018-05-26T19:03:31.218Z,23.90
2018-05-26T19:06:01.254Z,23.80
2018-05-26T19:08:30.727Z,23.70
2018-05-26T19:11:01.000Z,23.60
2018-05-26T19:13:32.267Z,23.50
2018-05-26T19:16:03.079Z,23.40
2018-05-26T19:18:34.809Z,23.60
2018-05-26T19:21:04.604Z,23.50
2018-05-26T19:23:34.281Z,23.70
2018-05-26T19:26:03.816Z,23.80
2018-05-26T19:28:38.428Z,23.90
2018-05-26T19:31:09.911Z,23.70
2018-05-26T19:33:39.622Z,23.70
2018-05-26T19:36:09.298Z,23.70
2018-05-26T19:38:39.183Z,23.60
2018-05-26T19:41:08.869Z,23.50
2018-05-26T19:43:38.340Z,23.50
2018-05-26T19:46:09.124Z,23.30
2018-05-26T19:48:39.379Z,23.30
2018-05-26T19:51:09.752Z,23.20
2018-05-26T19:53:39.250Z,23.20
2018-05-26T19:56:09.864Z,23.30
2018-05-26T19:58:40.181Z,23.40
2018-05-26T20:01:10.734Z,23.50
2018-05-26T20:03:40.291Z,23.40
2018-05-26T20:06:10.777Z,23.50
2018-05-26T20:08:40.466Z,23.50
2018-05-26T20:11:10.198Z,23.40
2018-05-26T20:13:39.749Z,23.40
2018-05-26T20:16:10.016Z,23.20
2018-05-26T20:18:40.573Z,23.10
2018-05-26T20:21:11.043Z,22.90
2018-05-26T20:23:40.801Z,22.90
2018-05-26T20:26:10.817Z,22.70
2018-05-26T20:28:41.433Z,22.60
2018-05-26T20:31:10.912Z,22.50
2018-05-26T20:33:41.217Z,22.70
2018-05-26T20:36:10.894Z,22.60
2018-05-26T20:38:41.631Z,22.70
2018-05-26T20:41:11.336Z,22.60
2018-05-26T20:43:40.871Z,22.50
2018-05-26T20:46:10.509Z,22.10
2018-05-26T20:48:40.752Z,22.10
2018-05-26T20:51:10.303Z,22.10
2018-05-26T20:53:44.281Z,21.80
2018-05-26T20:56:15.745Z,21.90
2018-05-26T20:58:45.498Z,22.10
2018-05-26T21:01:16.691Z,22.00
2018-05-26T21:03:47.953Z,22.00
2018-05-26T21:06:17.551Z,21.80
2018-05-26T21:08:57.841Z,21.70
2018-05-26T21:11:29.105Z,21.60
2018-05-26T21:14:00.823Z,21.30
2018-05-26T21:16:32.373Z,21.30
2018-05-26T21:19:04.042Z,21.20
2018-05-26T21:21:33.838Z,21.00
2018-05-26T21:24:03.803Z,20.80
2018-05-26T21:26:36.560Z,20.60
2018-05-26T21:29:20.374Z,20.60
2018-05-26T21:31:53.773Z,20.80
2018-05-26T21:34:23.713Z,20.80
2018-05-26T21:36:54.249Z,20.60
2018-05-26T21:39:24.959Z,20.40
2018-05-26T21:41:55.281Z,20.40
2018-05-26T21:44:24.808Z,20.40
2018-05-26T21:46:54.362Z,20.40
2018-05-26T21:49:23.868Z,20.40
2018-05-26T21:51:54.844Z,20.30
2018-05-26T21:54:24.639Z,20.20
2018-05-26T21:56:54.317Z,20.20
2018-05-26T21:59:23.911Z,20.10
2018-05-26T22:02:06.949Z,20.00
2018-05-26T22:04:38.402Z,20.00
2018-05-26T22:07:07.904Z,20.10
2018-05-26T22:09:38.497Z,19.80
2018-05-26T22:12:08.779Z,19.80
2018-05-26T22:14:38.311Z,20.10
2018-05-26T22:17:10.816Z,20.10
2018-05-26T22:19:40.617Z,20.00
2018-05-26T22:22:10.340Z,20.10
2018-05-26T22:24:40.283Z,20.50
2018-05-26T22:27:10.589Z,20.60
2018-05-26T22:29:40.882Z,20.40
2018-05-26T22:32:10.773Z,20.40
2018-05-26T22:34:41.140Z,20.30
2018-05-26T22:37:11.975Z,20.30
2018-05-26T22:39:41.442Z,20.20
2018-05-26T22:42:11.071Z,20.20
2018-05-26T22:44:40.682Z,20.10
2018-05-26T22:47:10.217Z,20.10
2018-05-26T22:49:39.997Z,20.10
2018-05-26T22:52:09.622Z,20.00
2018-05-26T22:54:39.336Z,20.00
2018-05-26T22:57:08.832Z,20.00
2018-05-26T22:59:38.386Z,19.90
2018-05-26T23:02:08.794Z,20.00
2018-05-26T23:04:38.394Z,20.00
2018-05-26T23:07:08.204Z,19.80
2018-05-26T23:09:38.316Z,19.40
2018-05-26T23:16:01.221Z,18.70
2018-05-26T23:18:32.446Z,18.70
2018-05-26T23:21:02.623Z,18.50
2018-05-26T23:23:32.157Z,18.30
2018-05-26T23:26:03.121Z,18.30
2018-05-26T23:28:34.697Z,18.20
2018-05-26T23:31:08.691Z,18.00
2018-05-26T23:33:45.717Z,17.70
2018-05-26T23:36:16.144Z,17.60
2018-05-26T23:38:45.860Z,17.50
2018-05-26T23:41:15.495Z,17.30
2018-05-26T23:43:46.341Z,17.30
2018-05-26T23:46:15.923Z,17.20
2018-05-26T23:48:45.715Z,17.30
2018-05-26T23:51:15.324Z,17.30
2018-05-26T23:53:44.929Z,17.30
2018-05-26T23:56:16.343Z,17.40
2018-05-26T23:58:47.585Z,17.40
